createdAt,value
2022-10-12T00:02:10.106Z,3.27
2022-10-12T00:04:36.406Z,3.97
2022-10-12T00:07:02.667Z,4.73
2022-10-12T00:09:28.934Z,3.87
2022-10-12T00:11:55.200Z,3.83
2022-10-12T00:14:21.463Z,4.40
2022-10-12T00:16:47.728Z,3.73
2022-10-12T00:19:14.295Z,4.10
2022-10-12T00:21:40.749Z,4.40
2022-10-12T00:24:07.217Z,4.57
2022-10-12T00:26:33.908Z,4.17
2022-10-12T00:29:01.295Z,4.13
2022-10-12T00:31:28.354Z,3.80
2022-10-12T00:33:55.125Z,4.20
2022-10-12T00:36:25.672Z,4.17
2022-10-12T00:38:52.635Z,3.93
2022-10-12T00:41:21.183Z,4.20
2022-10-12T00:43:48.384Z,3.53
2022-10-12T00:46:18.568Z,5.37
2022-10-12T00:48:45.853Z,3.60
2022-10-12T00:51:12.488Z,4.13
2022-10-12T00:53:45.518Z,4.57
2022-10-12T00:56:15.372Z,4.70
2022-10-12T00:58:41.688Z,4.97
2022-10-12T01:01:08.052Z,4.03
2022-10-12T01:03:34.993Z,3.47
2022-10-12T01:06:01.311Z,4.27
2022-10-12T01:08:28.623Z,4.57
2022-10-12T01:10:55.533Z,4.33
2022-10-12T01:13:21.846Z,4.00
2022-10-12T01:16:08.347Z,4.20
2022-10-12T01:18:41.508Z,4.00
2022-10-12T01:21:10.784Z,4.97
2022-10-12T01:23:56.047Z,4.43
2022-10-12T01:26:33.285Z,3.97
2022-10-12T01:29:11.591Z,4.17
2022-10-12T01:31:43.321Z,4.63
2022-10-12T01:34:13.022Z,5.17
2022-10-12T01:36:41.896Z,4.37
2022-10-12T01:39:17.236Z,5.07
2022-10-12T01:41:55.259Z,5.37
2022-10-12T01:44:21.974Z,4.73
2022-10-12T01:46:48.688Z,4.20
2022-10-12T01:49:16.713Z,4.93
2022-10-12T01:52:01.851Z,3.93
2022-10-12T01:54:43.927Z,5.40
2022-10-12T01:57:18.983Z,4.10
2022-10-12T01:59:51.908Z,5.10
2022-10-12T02:02:18.135Z,4.67
2022-10-12T02:04:47.518Z,5.40
2022-10-12T02:07:27.139Z,4.70
2022-10-12T02:09:55.721Z,4.93
2022-10-12T02:12:23.569Z,5.30
2022-10-12T02:14:55.120Z,4.53
2022-10-12T02:17:22.331Z,5.00
2022-10-12T02:20:08.840Z,4.63
2022-10-12T02:22:36.275Z,4.13
2022-10-12T02:25:07.650Z,4.47
2022-10-12T02:27:36.275Z,4.90
2022-10-12T02:30:02.888Z,4.80
2022-10-12T02:32:37.602Z,4.70
2022-10-12T02:35:22.711Z,4.90
2022-10-12T02:37:51.351Z,4.95
2022-10-12T02:40:21.674Z,4.53
2022-10-12T02:43:10.744Z,4.83
2022-10-12T02:45:38.793Z,4.27
2022-10-12T02:48:07.223Z,4.97
2022-10-12T02:50:34.302Z,5.23
2022-10-12T02:53:00.657Z,5.13
2022-10-12T02:55:26.992Z,4.47
2022-10-12T02:57:53.331Z,4.77
2022-10-12T03:00:19.663Z,5.40
2022-10-12T03:02:45.950Z,5.33
2022-10-12T03:05:12.258Z,4.77
2022-10-12T03:07:38.819Z,4.87
2022-10-12T03:10:05.597Z,5.97
2022-10-12T03:12:31.857Z,4.70
2022-10-12T03:14:58.137Z,5.37
2022-10-12T03:17:24.691Z,5.33
2022-10-12T03:19:50.936Z,5.30
2022-10-12T03:22:17.241Z,5.30
2022-10-12T03:24:43.529Z,5.10
2022-10-12T03:27:09.797Z,5.40
2022-10-12T03:29:36.093Z,5.23
2022-10-12T03:32:02.464Z,4.80
2022-10-12T03:34:28.706Z,5.27
2022-10-12T03:36:54.977Z,4.90
2022-10-12T03:39:21.296Z,5.57
2022-10-12T03:41:47.596Z,5.37
2022-10-12T03:44:13.976Z,6.17
2022-10-12T03:46:40.267Z,4.83
2022-10-12T03:49:06.582Z,6.07
2022-10-12T03:51:32.866Z,5.67
2022-10-12T03:53:59.178Z,5.10
2022-10-12T03:56:25.467Z,5.27
2022-10-12T03:58:51.859Z,6.07
2022-10-12T04:01:18.171Z,5.50
2022-10-12T04:03:44.591Z,5.20
2022-10-12T04:06:10.939Z,6.93
2022-10-12T04:08:39.862Z,6.07
2022-10-12T04:11:06.491Z,5.73
2022-10-12T04:13:32.831Z,6.77
2022-10-12T04:16:06.230Z,5.93
2022-10-12T04:18:33.287Z,6.40
2022-10-12T04:21:00.215Z,6.10
2022-10-12T04:23:26.561Z,5.87
2022-10-12T04:25:52.876Z,5.70
2022-10-12T04:28:19.169Z,6.03
2022-10-12T04:30:45.855Z,6.07
2022-10-12T04:33:12.212Z,6.37
2022-10-12T04:35:38.541Z,5.37
2022-10-12T04:38:05.478Z,5.97
2022-10-12T04:40:31.799Z,6.20
2022-10-12T04:42:58.070Z,6.63
2022-10-12T04:45:24.370Z,6.07
2022-10-12T04:47:50.723Z,6.07
2022-10-12T04:50:17.003Z,5.77
2022-10-12T04:52:43.258Z,5.60
2022-10-12T04:55:09.577Z,5.63
2022-10-12T04:57:36.161Z,5.67
2022-10-12T05:00:02.742Z,5.33
2022-10-12T05:02:28.999Z,6.07
2022-10-12T05:04:55.281Z,5.60
2022-10-12T05:07:21.594Z,6.27
2022-10-12T05:09:47.874Z,6.80
2022-10-12T05:12:14.127Z,6.20
2022-10-12T05:14:40.402Z,5.80
2022-10-12T05:17:06.700Z,5.47
2022-10-12T05:19:32.995Z,6.70
2022-10-12T05:21:59.284Z,5.90
2022-10-12T05:24:25.607Z,6.20
2022-10-12T05:26:51.891Z,5.77
2022-10-12T05:29:18.164Z,7.37
2022-10-12T05:31:44.466Z,5.73
2022-10-12T05:34:10.706Z,6.47
2022-10-12T05:36:37.244Z,6.27
2022-10-12T05:39:03.615Z,8.17
2022-10-12T05:41:29.875Z,6.70
2022-10-12T05:43:56.143Z,7.50
2022-10-12T05:46:22.462Z,6.67
2022-10-12T05:48:48.721Z,6.87
2022-10-12T05:51:14.979Z,7.37
2022-10-12T05:53:41.326Z,7.43
2022-10-12T05:56:07.787Z,6.50
2022-10-12T05:58:34.436Z,6.30
2022-10-12T06:01:04.642Z,7.47
2022-10-12T06:03:34.807Z,5.73
2022-10-12T06:06:01.575Z,4.83
2022-10-12T06:08:29.108Z,6.20
2022-10-12T06:10:55.415Z,6.40
2022-10-12T06:13:22.055Z,4.87
2022-10-12T06:15:48.925Z,4.63
2022-10-12T06:18:15.769Z,5.67
2022-10-12T06:20:45.590Z,4.87
2022-10-12T06:23:11.924Z,4.77
2022-10-12T06:25:38.189Z,5.60
2022-10-12T06:28:04.519Z,4.80
2022-10-12T06:30:30.775Z,4.73
2022-10-12T06:32:57.090Z,6.23
2022-10-12T06:35:23.364Z,4.90
2022-10-12T06:37:50.685Z,5.33
2022-10-12T06:40:17.943Z,6.13
2022-10-12T06:42:44.430Z,7.97
2022-10-12T06:45:11.167Z,6.87
2022-10-12T06:47:37.538Z,7.07
2022-10-12T06:50:04.100Z,6.77
2022-10-12T06:52:31.554Z,5.67
2022-10-12T06:54:57.823Z,6.63
2022-10-12T06:57:24.074Z,5.83
2022-10-12T06:59:50.372Z,6.73
2022-10-12T07:02:16.627Z,6.30
2022-10-12T07:04:42.939Z,5.80
2022-10-12T07:07:09.454Z,6.03
2022-10-12T07:09:36.347Z,6.77
2022-10-12T07:12:02.643Z,6.33
2022-10-12T07:14:28.882Z,6.60
2022-10-12T07:16:55.672Z,6.43
2022-10-12T07:19:22.004Z,6.90
2022-10-12T07:21:48.292Z,7.20
2022-10-12T07:24:14.611Z,7.33
2022-10-12T07:26:40.875Z,6.83
2022-10-12T07:29:07.415Z,7.83
2022-10-12T07:31:33.793Z,8.90
2022-10-12T07:34:00.055Z,8.73
2022-10-12T07:36:41.074Z,8.23
2022-10-12T07:39:12.821Z,8.63
2022-10-12T07:41:39.075Z,6.93
2022-10-12T07:44:05.376Z,7.97
2022-10-12T07:46:31.627Z,9.83
2022-10-12T07:48:57.997Z,8.90
2022-10-12T07:51:24.260Z,9.53
2022-10-12T07:53:50.715Z,10.97
2022-10-12T07:56:17.138Z,9.43
2022-10-12T07:58:50.562Z,10.23
2022-10-12T08:01:17.628Z,8.87
2022-10-12T08:03:44.047Z,10.50
2022-10-12T08:06:14.459Z,10.60
2022-10-12T08:08:40.986Z,8.57
2022-10-12T08:11:07.515Z,9.33
2022-10-12T08:13:34.519Z,11.60
2022-10-12T08:16:01.672Z,7.97
2022-10-12T08:18:28.147Z,7.80
2022-10-12T08:20:54.581Z,6.90
2022-10-12T08:23:20.949Z,7.43
2022-10-12T08:25:54.050Z,8.37
2022-10-12T08:28:20.471Z,9.00
2022-10-12T08:30:46.768Z,8.10
2022-10-12T08:33:13.407Z,7.07
2022-10-12T08:35:40.456Z,9.23
2022-10-12T08:38:07.131Z,8.05
2022-10-12T08:40:35.763Z,8.55
2022-10-12T08:43:01.994Z,8.95
2022-10-12T08:45:57.619Z,10.20
2022-10-12T08:48:29.698Z,10.23
2022-10-12T08:53:40.482Z,9.88
2022-10-12T08:56:06.933Z,9.57
2022-10-12T08:58:35.335Z,10.48
2022-10-12T09:01:14.127Z,10.57
2022-10-12T09:04:01.334Z,13.00
2022-10-12T09:06:29.964Z,13.05
2022-10-12T09:09:14.690Z,7.35
2022-10-12T09:11:54.745Z,8.23
2022-10-12T09:14:23.981Z,7.68
2022-10-12T09:16:51.938Z,9.07
2022-10-12T09:19:25.921Z,8.77
2022-10-12T09:21:52.504Z,9.15
2022-10-12T09:24:20.991Z,8.27
2022-10-12T09:26:50.551Z,7.68
2022-10-12T09:29:24.318Z,7.32
2022-10-12T09:31:50.567Z,8.85
2022-10-12T09:34:19.411Z,7.88
2022-10-12T09:36:46.078Z,8.43
2022-10-12T09:39:28.894Z,10.65
2022-10-12T09:41:55.604Z,10.63
2022-10-12T09:44:37.701Z,7.93
2022-10-12T09:47:27.336Z,9.70
2022-10-12T09:50:04.442Z,10.77
2022-10-12T09:52:36.546Z,10.60
2022-10-12T09:55:07.805Z,9.05
2022-10-12T09:57:36.692Z,11.27
2022-10-12T10:00:06.423Z,9.15
2022-10-12T10:02:34.743Z,10.10
2022-10-12T10:05:14.425Z,9.52
2022-10-12T10:07:40.734Z,8.27
2022-10-12T10:10:08.183Z,9.60
2022-10-12T10:12:36.776Z,10.07
2022-10-12T10:15:03.151Z,9.68
2022-10-12T10:17:31.487Z,10.65
2022-10-12T10:19:58.553Z,11.07
2022-10-12T10:22:25.212Z,10.35
2022-10-12T10:24:57.556Z,9.90
2022-10-12T10:27:29.316Z,10.88
2022-10-12T10:30:28.702Z,9.90
2022-10-12T10:33:06.945Z,8.90
2022-10-12T10:35:33.212Z,9.68
2022-10-12T10:37:59.940Z,7.43
2022-10-12T10:40:27.645Z,8.30
2022-10-12T10:42:57.740Z,8.82
2022-10-12T10:45:25.758Z,8.65
2022-10-12T10:47:56.433Z,7.65
2022-10-12T10:50:25.091Z,8.48
2022-10-12T10:52:56.780Z,7.40
2022-10-12T10:55:46.506Z,6.72
2022-10-12T10:58:19.275Z,5.90
2022-10-12T11:00:47.513Z,6.75
2022-10-12T11:06:01.616Z,5.38
2022-10-12T11:08:30.877Z,6.05
2022-10-12T11:11:12.519Z,6.45
2022-10-12T11:13:41.395Z,6.25
2022-10-12T11:16:07.862Z,6.13
2022-10-12T11:18:39.258Z,5.65
2022-10-12T11:21:12.189Z,5.93
2022-10-12T11:23:58.700Z,4.78
2022-10-12T11:26:25.017Z,6.75
2022-10-12T11:28:53.043Z,4.93
2022-10-12T11:31:47.100Z,5.85
2022-10-12T11:34:16.250Z,5.03
2022-10-12T11:36:55.852Z,5.13
2022-10-12T11:39:37.683Z,5.70
2022-10-12T11:42:22.485Z,5.72
2022-10-12T11:44:49.680Z,4.45
2022-10-12T11:47:32.253Z,4.75
2022-10-12T11:50:04.453Z,5.22
2022-10-12T11:52:37.532Z,4.20
2022-10-12T11:55:21.643Z,4.40
2022-10-12T11:57:48.527Z,4.78
2022-10-12T12:00:23.904Z,4.38
2022-10-12T12:05:17.297Z,3.33
2022-10-12T12:07:47.800Z,3.78
2022-10-12T12:10:26.442Z,4.90
2022-10-12T12:13:14.614Z,3.95
2022-10-12T12:15:47.173Z,4.38
2022-10-12T12:18:13.530Z,4.57
2022-10-12T12:20:46.667Z,4.53
2022-10-12T12:23:24.710Z,4.88
2022-10-12T12:26:06.135Z,4.18
2022-10-12T12:28:33.099Z,4.40
2022-10-12T12:31:01.213Z,4.75
2022-10-12T12:33:30.043Z,4.75
2022-10-12T12:35:57.978Z,4.15
2022-10-12T12:38:32.127Z,4.50
2022-10-12T12:41:03.544Z,5.40
2022-10-12T12:43:29.772Z,3.88
2022-10-12T12:46:03.447Z,4.20
2022-10-12T12:48:38.571Z,4.28
2022-10-12T12:51:09.396Z,4.25
2022-10-12T12:53:40.764Z,3.55
2022-10-12T12:56:22.171Z,3.85
2022-10-12T12:58:55.631Z,4.18
2022-10-12T13:01:40.710Z,3.15
2022-10-12T13:04:18.948Z,4.07
2022-10-12T13:07:00.254Z,3.63
2022-10-12T13:09:29.338Z,3.85
2022-10-12T13:11:55.590Z,3.92
2022-10-12T13:14:21.868Z,2.97
2022-10-12T13:19:37.741Z,3.28
2022-10-12T13:22:06.461Z,3.40
2022-10-12T13:24:45.354Z,3.35
2022-10-12T13:27:32.867Z,4.07
2022-10-12T13:30:03.687Z,3.90
2022-10-12T13:32:49.972Z,3.95
2022-10-12T13:35:26.647Z,3.00
2022-10-12T13:38:00.433Z,3.60
2022-10-12T13:40:27.651Z,3.45
2022-10-12T13:42:54.010Z,4.00
2022-10-12T13:45:20.484Z,3.30
2022-10-12T13:47:46.855Z,3.90
2022-10-12T13:50:19.992Z,3.13
2022-10-12T13:52:53.423Z,3.65
2022-10-12T13:55:24.516Z,3.33
2022-10-12T13:57:51.410Z,2.85
2022-10-12T14:00:17.858Z,3.83
2022-10-12T14:02:54.336Z,3.35
2022-10-12T14:05:23.890Z,3.25
2022-10-12T14:07:51.703Z,3.28
2022-10-12T14:10:23.354Z,3.65
2022-10-12T14:12:50.787Z,3.95
2022-10-12T14:15:17.424Z,3.55
2022-10-12T14:17:44.736Z,3.65
2022-10-12T14:20:37.603Z,3.00
2022-10-12T14:23:14.279Z,3.40
2022-10-12T14:25:51.145Z,4.47
2022-10-12T14:28:43.651Z,3.20
2022-10-12T14:31:16.599Z,4.05
2022-10-12T14:33:45.964Z,3.60
2022-10-12T14:36:28.623Z,3.28
2022-10-12T14:39:02.358Z,3.50
2022-10-12T14:41:32.311Z,3.08
2022-10-12T14:44:16.225Z,3.45
2022-10-12T14:46:42.525Z,3.67
2022-10-12T14:49:31.841Z,3.65
2022-10-12T14:51:59.135Z,3.28
2022-10-12T14:54:25.489Z,3.70
2022-10-12T14:56:51.805Z,3.22
2022-10-12T14:59:18.094Z,3.55
2022-10-12T15:01:47.667Z,3.03
2022-10-12T15:04:17.412Z,3.90
2022-10-12T15:06:48.298Z,3.05
2022-10-12T15:09:16.906Z,3.72
2022-10-12T15:11:43.197Z,3.70
2022-10-12T15:14:10.028Z,3.33
2022-10-12T15:16:36.326Z,3.30
2022-10-12T15:19:02.631Z,2.83
2022-10-12T15:21:28.920Z,3.95
2022-10-12T15:23:55.230Z,4.10
2022-10-12T15:26:22.453Z,3.30
2022-10-12T15:28:48.754Z,3.28
2022-10-12T15:31:18.352Z,4.13
2022-10-12T15:33:45.237Z,4.68
2022-10-12T15:36:11.621Z,5.18
2022-10-12T15:38:37.981Z,5.50
2022-10-12T15:41:04.612Z,4.90
2022-10-12T15:43:32.424Z,4.72
2022-10-12T15:46:00.255Z,4.30
2022-10-12T15:48:27.763Z,4.13
2022-10-12T15:50:54.092Z,3.97
2022-10-12T15:53:23.896Z,3.25
2022-10-12T15:55:50.702Z,4.78
2022-10-12T15:58:16.976Z,4.47
2022-10-12T16:00:43.343Z,4.53
2022-10-12T16:03:13.308Z,4.47
2022-10-12T16:05:39.569Z,4.93
2022-10-12T16:08:06.177Z,4.65
2022-10-12T16:10:34.136Z,4.53
2022-10-12T16:13:00.448Z,5.28
2022-10-12T16:15:29.471Z,4.50
2022-10-12T16:17:56.150Z,4.63
2022-10-12T16:20:23.041Z,5.57
2022-10-12T16:22:50.056Z,4.35
2022-10-12T16:25:17.561Z,4.63
2022-10-12T16:27:44.536Z,5.00
2022-10-12T16:30:11.334Z,4.47
2022-10-12T16:32:37.603Z,4.63
2022-10-12T16:35:04.362Z,4.72
2022-10-12T16:37:31.011Z,4.65
2022-10-12T16:39:57.541Z,4.18
2022-10-12T16:42:23.963Z,5.18
2022-10-12T16:44:50.259Z,3.70
2022-10-12T16:47:16.628Z,4.13
2022-10-12T16:49:42.894Z,4.38
2022-10-12T16:52:09.209Z,4.20
2022-10-12T16:54:35.463Z,4.57
2022-10-12T16:57:01.791Z,4.38
2022-10-12T16:59:28.076Z,5.07
2022-10-12T17:01:54.534Z,4.70
2022-10-12T17:04:21.055Z,4.90
2022-10-12T17:06:47.357Z,4.25
2022-10-12T17:09:13.653Z,4.50
2022-10-12T17:11:39.933Z,5.55
2022-10-12T17:14:07.349Z,4.82
2022-10-12T17:16:49.301Z,4.50
2022-10-12T17:19:28.879Z,4.72
2022-10-12T17:21:59.243Z,5.45
2022-10-12T17:24:26.966Z,5.20
2022-10-12T17:26:53.735Z,4.68
2022-10-12T17:29:20.593Z,4.88
2022-10-12T17:31:47.852Z,4.88
2022-10-12T17:34:17.424Z,4.70
2022-10-12T17:36:43.850Z,4.82
2022-10-12T17:39:10.198Z,5.40
2022-10-12T17:41:36.480Z,4.78
2022-10-12T17:44:02.946Z,3.92
2022-10-12T17:46:29.371Z,5.15
2022-10-12T17:48:56.226Z,4.72
2022-10-12T17:51:22.766Z,4.75
2022-10-12T17:53:49.139Z,4.97
2022-10-12T17:56:15.829Z,4.72
2022-10-12T17:58:42.407Z,5.43
2022-10-12T18:01:12.913Z,6.65
2022-10-12T18:03:41.225Z,8.40
2022-10-12T18:06:09.161Z,7.45
2022-10-12T18:08:35.808Z,11.18
2022-10-12T18:11:03.050Z,13.82
2022-10-12T18:13:29.838Z,12.48
2022-10-12T18:15:56.608Z,13.40
2022-10-12T18:18:24.123Z,11.05
2022-10-12T18:20:50.743Z,9.98
2022-10-12T18:23:17.199Z,7.53
2022-10-12T18:25:43.497Z,7.13
2022-10-12T18:28:11.116Z,6.40
2022-10-12T18:30:37.837Z,6.82
2022-10-12T18:33:04.725Z,6.13
2022-10-12T18:35:33.799Z,5.93
2022-10-12T18:38:00.222Z,5.93
2022-10-12T18:40:26.804Z,5.32
2022-10-12T18:42:53.236Z,5.30
2022-10-12T18:45:19.769Z,6.20
2022-10-12T18:47:46.389Z,9.38
2022-10-12T18:50:12.946Z,13.45
2022-10-12T18:52:39.408Z,8.98
2022-10-12T18:55:06.011Z,7.40
2022-10-12T18:57:36.450Z,5.78
2022-10-12T19:00:06.333Z,5.88
2022-10-12T19:02:33.415Z,5.30
2022-10-12T19:04:59.847Z,6.20
2022-10-12T19:07:26.665Z,5.82
2022-10-12T19:09:53.248Z,6.28
2022-10-12T19:12:20.093Z,5.60
2022-10-12T19:14:47.791Z,5.32
2022-10-12T19:17:15.060Z,4.70
2022-10-12T19:19:41.656Z,5.70
2022-10-12T19:22:08.415Z,5.60
2022-10-12T19:24:34.964Z,6.18
2022-10-12T19:27:01.296Z,6.47
2022-10-12T19:29:27.658Z,7.15
2022-10-12T19:31:54.068Z,10.98
2022-10-12T19:34:21.045Z,8.10
2022-10-12T19:36:47.915Z,6.90
2022-10-12T19:39:15.993Z,6.78
2022-10-12T19:41:42.448Z,7.82
2022-10-12T19:44:11.161Z,6.55
2022-10-12T19:46:38.194Z,6.97
2022-10-12T19:49:04.611Z,6.28
2022-10-12T19:51:32.310Z,6.60
2022-10-12T19:53:59.933Z,6.93
2022-10-12T19:56:26.666Z,5.38
2022-10-12T19:58:55.461Z,5.80
2022-10-12T20:01:25.987Z,5.65
2022-10-12T20:03:52.439Z,6.60
2022-10-12T20:06:19.673Z,5.95
2022-10-12T20:08:46.174Z,6.35
2022-10-12T20:11:17.993Z,6.05
2022-10-12T20:13:46.055Z,6.13
2022-10-12T20:16:12.688Z,5.43
2022-10-12T20:18:39.032Z,6.65
2022-10-12T20:21:06.165Z,6.18
2022-10-12T20:23:40.169Z,6.65
2022-10-12T20:26:08.376Z,7.00
2022-10-12T20:28:35.642Z,6.35
2022-10-12T20:31:02.799Z,7.20
2022-10-12T20:33:29.206Z,6.72
2022-10-12T20:35:55.486Z,6.63
2022-10-12T20:38:21.820Z,5.93
2022-10-12T20:40:48.145Z,6.47
2022-10-12T20:43:15.253Z,5.75
2022-10-12T20:45:41.870Z,5.72
2022-10-12T20:48:08.516Z,5.90
2022-10-12T20:50:35.116Z,6.82
2022-10-12T20:53:01.469Z,6.20
2022-10-12T20:55:27.852Z,6.20
2022-10-12T20:57:54.377Z,6.32
2022-10-12T21:00:20.806Z,6.13
2022-10-12T21:02:47.219Z,5.93
2022-10-12T21:05:13.566Z,8.40
2022-10-12T21:07:39.876Z,7.88
2022-10-12T21:10:06.751Z,8.07
2022-10-12T21:12:33.156Z,7.30
2022-10-12T21:14:59.598Z,6.85
2022-10-12T21:17:25.965Z,7.40
2022-10-12T21:19:53.906Z,7.63
2022-10-12T21:22:20.694Z,7.80
2022-10-12T21:24:47.214Z,8.63
2022-10-12T21:27:13.927Z,8.07
2022-10-12T21:29:40.296Z,8.48
2022-10-12T21:32:06.607Z,8.07
2022-10-12T21:34:32.924Z,8.00
2022-10-12T21:36:59.387Z,8.98
2022-10-12T21:39:25.917Z,7.38
2022-10-12T21:41:52.282Z,7.63
2022-10-12T21:44:18.737Z,8.38
2022-10-12T21:46:45.035Z,8.15
2022-10-12T21:49:11.524Z,8.50
2022-10-12T21:51:37.980Z,8.18
2022-10-12T21:54:05.344Z,8.18
2022-10-12T21:56:33.074Z,8.70
2022-10-12T21:59:00.086Z,9.35
2022-10-12T22:01:28.178Z,9.27
2022-10-12T22:03:55.762Z,8.68
2022-10-12T22:06:22.822Z,8.48
2022-10-12T22:08:53.868Z,8.05
2022-10-12T22:11:20.688Z,8.18
2022-10-12T22:13:47.209Z,9.73
2022-10-12T22:16:15.049Z,8.80
2022-10-12T22:18:41.831Z,8.48
2022-10-12T22:21:12.958Z,9.02
2022-10-12T22:23:39.386Z,8.63
2022-10-12T22:26:08.109Z,8.85
2022-10-12T22:28:35.051Z,8.82
2022-10-12T22:31:04.790Z,9.13
2022-10-12T22:33:31.205Z,8.63
2022-10-12T22:35:58.618Z,9.63
2022-10-12T22:38:25.382Z,9.38
2022-10-12T22:40:55.651Z,8.98
2022-10-12T22:43:22.173Z,10.27
2022-10-12T22:45:48.654Z,9.52
2022-10-12T22:48:14.936Z,9.02
2022-10-12T22:50:42.832Z,9.23
2022-10-12T22:53:09.294Z,9.85
2022-10-12T22:55:35.705Z,10.15
2022-10-12T22:58:02.109Z,8.73
2022-10-12T23:00:28.499Z,9.10
2022-10-12T23:02:54.838Z,9.00
2022-10-12T23:05:21.221Z,8.27
2022-10-12T23:07:47.539Z,8.60
2022-10-12T23:10:13.996Z,9.23
2022-10-12T23:12:40.460Z,9.23
2022-10-12T23:15:07.194Z,8.05
2022-10-12T23:17:33.830Z,9.43
2022-10-12T23:20:00.163Z,8.48
2022-10-12T23:22:27.530Z,9.30
2022-10-12T23:24:53.956Z,9.25
2022-10-12T23:27:20.313Z,9.05
2022-10-12T23:29:47.316Z,8.65
2022-10-12T23:32:13.883Z,9.27
2022-10-12T23:34:40.372Z,10.23
2022-10-12T23:37:06.688Z,8.82
2022-10-12T23:39:33.205Z,8.98
2022-10-12T23:41:59.538Z,10.20
2022-10-12T23:44:25.820Z,9.02
2022-10-12T23:46:52.288Z,9.13
2022-10-12T23:49:18.743Z,9.13
2022-10-12T23:51:45.016Z,9.27
2022-10-12T23:54:11.545Z,8.13
2022-10-12T23:56:37.903Z,9.77
2022-10-12T23:59:04.245Z,9.52
